Aiken, SC (29803)

3:45 PM EST on February 13, 2016 (GMT -0500)
100 Akre Wood | | Change Station
CLOSE
Current Station
Personal Weather Station
Location: Aiken, SC
Elevation: 449 ft
Nearby Weather Stations

Elev 449 ft 33.53 °N, 81.73 °W | Updated 14 minutes ago

Clear
Clear
50.0 °F
Feels Like 49 °F
N
3.8
Wind Variable Wind from North
Gusts 6.9 mph

Today
High -- | Low -- °F
--% Chance of Precip.
Yesterday
High -- | Low -- °F
Precip. -- in
Pressure 30.28 in
Visibility 10.0 miles
Clouds Clear
Windchill 49 °F
Dew Point 15 °F
Humidity 24%
Rainfall 0.00 in
Snow Depth Not available.
7:13 AM 6:09 PM
Waxing Crescent, 34% visible
METAR KAIK 132035Z AUTO 00000KT 10SM CLR 07/M08 A3028 RMK AO2
Pressure 30.28 in
Visibility 10.0 miles
Clouds Clear
Windchill 49 °F
Dew Point 15 °F
Humidity 24%
Rainfall 0.00 in
Snow Depth Not available.
7:13 AM 6:09 PM
Waxing Crescent, 34% visible
METAR KAIK 132035Z AUTO 00000KT 10SM CLR 07/M08 A3028 RMK AO2

10-Day Weather Forecast

Almanac

Astronomy

Feb. 13, 2016 Rise Set
Actual Time
Civil Twilight
Nautical Twilight
Astronomical Twilight
Moon
Length of Visible Light
Length of Day
Tomorrow will be .
, % of the Moon is Illuminated

Today's Extremes

State Highs State Lows

Community

WunderPhotos

Upload Photos

1,892,666 photos uploaded!

WunderBlog® & News

Nearby

Air Quality

  Air Quality AQ Index Pollutant
Not available.

Snow Depth

Station Depth Elevation

Earthquake Activity

City Distance Mag. Time & Date
Minimum magnitude displayed is 2.5.

Coastal Water Temperatures

Place Temperature

Stations

Nearby Weather Stations

Station Location Temp. Windchill Dew Point Humidity Wind Precip. Elev Updated Type
                   

Watches & Warnings

There are currently no watches in effect.